createdAt,value
2023-05-15T00:01:48.373Z,48.71
2023-05-15T00:04:14.804Z,48.56
2023-05-15T00:06:41.299Z,48.66
2023-05-15T00:09:08.613Z,48.67
2023-05-15T00:11:34.969Z,48.59
2023-05-15T00:14:01.341Z,48.56
2023-05-15T00:16:27.738Z,48.68
2023-05-15T00:18:54.153Z,48.54
2023-05-15T00:21:20.652Z,48.58
2023-05-15T00:23:47.548Z,48.71
2023-05-15T00:26:15.716Z,48.64
2023-05-15T00:28:42.109Z,48.53
2023-05-15T00:31:08.880Z,48.62
2023-05-15T00:33:35.451Z,48.51
2023-05-15T00:36:03.189Z,48.74
2023-05-15T00:38:29.574Z,48.46
2023-05-15T00:40:56.612Z,48.65
2023-05-15T00:43:25.645Z,48.62
2023-05-15T00:45:53.364Z,48.72
2023-05-15T00:48:22.547Z,48.51
2023-05-15T00:50:50.323Z,48.60
2023-05-15T00:53:17.348Z,48.68
2023-05-15T00:55:46.254Z,48.62
2023-05-15T00:58:14.752Z,48.79
2023-05-15T01:00:43.286Z,48.69
2023-05-15T01:03:09.789Z,48.64
2023-05-15T01:05:36.956Z,48.66
2023-05-15T01:08:27.529Z,48.61
2023-05-15T01:10:55.357Z,48.65
2023-05-15T01:13:22.736Z,48.72
2023-05-15T01:15:49.919Z,48.82
2023-05-15T01:18:17.027Z,48.80
2023-05-15T01:21:02.761Z,48.51
2023-05-15T01:23:47.824Z,48.69
2023-05-15T01:26:40.660Z,48.66
2023-05-15T01:29:35.156Z,48.63
2023-05-15T01:32:06.633Z,48.67
2023-05-15T01:34:55.554Z,48.82
2023-05-15T01:37:25.595Z,48.68
2023-05-15T01:39:59.974Z,48.65
2023-05-15T01:42:33.273Z,48.62
2023-05-15T01:45:03.445Z,48.64
2023-05-15T01:47:37.747Z,48.74
2023-05-15T01:50:06.896Z,48.61
2023-05-15T01:52:35.771Z,48.77
2023-05-15T01:55:04.246Z,48.83
2023-05-15T01:57:31.769Z,48.68
2023-05-15T01:59:59.377Z,48.82
2023-05-15T02:02:27.448Z,48.75
2023-05-15T02:04:56.585Z,48.53
2023-05-15T02:07:23.879Z,48.73
2023-05-15T02:09:52.642Z,48.79
2023-05-15T02:12:20.802Z,48.61
2023-05-15T02:14:49.380Z,48.66
2023-05-15T02:17:16.274Z,48.67
2023-05-15T02:19:42.661Z,48.58
2023-05-15T02:22:09.255Z,48.78
2023-05-15T02:24:35.745Z,48.62
2023-05-15T02:27:13.390Z,48.81
2023-05-15T02:29:45.734Z,48.66
2023-05-15T02:32:29.081Z,48.65
2023-05-15T02:35:25.950Z,48.77
2023-05-15T02:37:56.371Z,48.71
2023-05-15T02:40:25.854Z,48.65
2023-05-15T02:42:53.678Z,48.79
2023-05-15T02:45:21.948Z,48.78
2023-05-15T02:47:50.471Z,48.79
2023-05-15T02:50:17.926Z,48.71
2023-05-15T02:52:44.340Z,48.76
2023-05-15T02:55:10.713Z,48.74
2023-05-15T02:57:37.134Z,48.68
2023-05-15T03:00:06.588Z,48.65
2023-05-15T03:02:33.114Z,48.80
2023-05-15T03:04:59.558Z,48.79
2023-05-15T03:07:26.865Z,48.79
2023-05-15T03:09:53.293Z,48.60
2023-05-15T03:12:19.644Z,48.71
2023-05-15T03:14:46.062Z,48.73
2023-05-15T03:17:12.676Z,48.57
2023-05-15T03:19:39.090Z,48.73
2023-05-15T03:22:05.573Z,48.69
2023-05-15T03:24:32.008Z,48.63
2023-05-15T03:26:58.355Z,48.75
2023-05-15T03:29:24.733Z,48.66
2023-05-15T03:31:51.202Z,48.57
2023-05-15T03:34:17.588Z,48.69
2023-05-15T03:36:43.940Z,48.65
2023-05-15T03:39:10.485Z,48.69
2023-05-15T03:41:37.804Z,48.51
2023-05-15T03:44:04.225Z,48.61
2023-05-15T03:46:30.928Z,48.53
2023-05-15T03:48:57.387Z,48.44
2023-05-15T03:51:24.091Z,48.34
2023-05-15T03:53:53.291Z,48.52
2023-05-15T03:56:22.647Z,48.23
2023-05-15T03:58:49.017Z,48.26
2023-05-15T04:01:15.501Z,48.08
2023-05-15T04:03:41.927Z,48.29
2023-05-15T04:06:08.323Z,48.07
2023-05-15T04:08:34.676Z,48.14
2023-05-15T04:11:01.308Z,47.92
2023-05-15T04:13:27.660Z,48.02
2023-05-15T04:15:55.048Z,47.94
2023-05-15T04:18:21.437Z,47.99
2023-05-15T04:20:47.804Z,47.62
2023-05-15T04:23:14.243Z,47.85
2023-05-15T04:25:45.252Z,47.82
2023-05-15T04:28:11.677Z,47.80
2023-05-15T04:30:38.144Z,47.71
2023-05-15T04:33:04.583Z,47.92
2023-05-15T04:35:30.988Z,47.70
2023-05-15T04:37:57.350Z,47.86
2023-05-15T04:40:23.809Z,47.93
2023-05-15T04:42:50.247Z,47.78
2023-05-15T04:45:16.694Z,47.94
2023-05-15T04:47:43.071Z,48.14
2023-05-15T04:50:09.772Z,47.83
2023-05-15T04:52:36.191Z,47.70
2023-05-15T04:55:02.606Z,47.96
2023-05-15T04:57:29.377Z,47.84
2023-05-15T04:59:55.828Z,47.90
2023-05-15T05:02:23.047Z,48.03
2023-05-15T05:04:50.078Z,47.97
2023-05-15T05:07:16.832Z,47.91
2023-05-15T05:09:43.193Z,47.92
2023-05-15T05:12:09.731Z,48.06
2023-05-15T05:14:36.304Z,46.93
2023-05-15T05:17:03.264Z,45.68
2023-05-15T05:19:29.715Z,45.22
2023-05-15T05:21:58.209Z,45.07
2023-05-15T05:24:25.043Z,45.69
2023-05-15T05:26:51.445Z,46.03
2023-05-15T05:29:17.828Z,46.63
2023-05-15T05:31:46.756Z,46.73
2023-05-15T05:34:13.232Z,46.78
2023-05-15T05:36:39.642Z,46.88
2023-05-15T05:39:06.062Z,47.02
2023-05-15T05:41:35.430Z,47.23
2023-05-15T05:44:01.907Z,47.01
2023-05-15T05:46:28.554Z,47.17
2023-05-15T05:48:54.972Z,47.32
2023-05-15T05:51:21.582Z,47.01
2023-05-15T05:53:48.013Z,47.45
2023-05-15T05:56:14.491Z,47.37
2023-05-15T05:58:40.849Z,47.23
2023-05-15T06:01:07.693Z,47.40
2023-05-15T06:03:34.404Z,47.50
2023-05-15T06:06:01.000Z,47.52
2023-05-15T06:08:29.326Z,47.51
2023-05-15T06:10:55.902Z,47.44
2023-05-15T06:13:22.245Z,47.33
2023-05-15T06:15:48.610Z,47.56
2023-05-15T06:18:15.006Z,47.50
2023-05-15T06:20:42.791Z,47.72
2023-05-15T06:23:09.507Z,47.33
2023-05-15T06:25:36.350Z,47.34
2023-05-15T06:28:02.712Z,47.72
2023-05-15T06:30:29.110Z,47.55
2023-05-15T06:32:55.637Z,46.88
2023-05-15T06:35:24.017Z,47.40
2023-05-15T06:37:51.790Z,47.29
2023-05-15T06:40:18.406Z,46.94
2023-05-15T06:42:44.750Z,46.35
2023-05-15T06:45:12.281Z,46.47
2023-05-15T06:47:38.857Z,46.20
2023-05-15T06:50:06.453Z,46.59
2023-05-15T06:52:32.824Z,46.12
2023-05-15T06:54:59.220Z,46.13
2023-05-15T06:57:26.251Z,46.10
2023-05-15T06:59:52.691Z,45.83
2023-05-15T07:02:19.199Z,45.93
2023-05-15T07:04:45.620Z,46.17
2023-05-15T07:07:12.251Z,46.10
2023-05-15T07:09:39.121Z,46.03
2023-05-15T07:12:05.790Z,45.60
2023-05-15T07:14:32.265Z,46.06
2023-05-15T07:16:58.641Z,46.19
2023-05-15T07:19:25.064Z,45.54
2023-05-15T07:21:51.767Z,45.40
2023-05-15T07:24:18.211Z,46.12
2023-05-15T07:26:57.441Z,45.53
2023-05-15T07:29:25.217Z,45.56
2023-05-15T07:31:51.581Z,45.93
2023-05-15T07:34:18.106Z,45.51
2023-05-15T07:36:44.458Z,45.68
2023-05-15T07:39:10.934Z,45.94
2023-05-15T07:41:37.310Z,45.59
2023-05-15T07:44:03.767Z,45.65
2023-05-15T07:46:30.279Z,45.70
2023-05-15T07:48:56.667Z,45.62
2023-05-15T07:51:23.034Z,46.18
2023-05-15T07:53:49.405Z,45.64
2023-05-15T07:56:16.459Z,46.07
2023-05-15T07:58:42.841Z,45.84
2023-05-15T08:01:09.224Z,46.31
2023-05-15T08:03:35.952Z,46.07
2023-05-15T08:06:02.396Z,45.88
2023-05-15T08:08:28.906Z,45.91
2023-05-15T08:10:55.485Z,45.72
2023-05-15T08:13:21.853Z,46.00
2023-05-15T08:15:48.262Z,45.89
2023-05-15T08:18:14.622Z,46.06
2023-05-15T08:20:41.150Z,45.79
2023-05-15T08:23:08.127Z,45.91
2023-05-15T08:25:34.465Z,46.27
2023-05-15T08:28:01.982Z,45.97
2023-05-15T08:30:28.518Z,46.31
2023-05-15T08:32:54.922Z,46.14
2023-05-15T08:35:21.347Z,46.27
2023-05-15T08:37:47.799Z,46.72
2023-05-15T08:40:15.014Z,46.12
2023-05-15T08:42:48.784Z,46.30
2023-05-15T08:45:15.186Z,46.61
2023-05-15T08:47:42.700Z,46.69
2023-05-15T08:50:13.870Z,46.62
2023-05-15T08:52:46.706Z,46.64
2023-05-15T08:55:17.162Z,46.64
2023-05-15T08:57:44.879Z,46.64
2023-05-15T09:00:14.696Z,46.56
2023-05-15T09:02:42.732Z,46.62
2023-05-15T09:05:10.383Z,46.19
2023-05-15T09:07:39.531Z,46.32
2023-05-15T09:10:06.976Z,45.84
2023-05-15T09:12:34.730Z,45.84
2023-05-15T09:15:17.059Z,45.59
2023-05-15T09:17:44.421Z,46.18
2023-05-15T09:20:34.903Z,45.61
2023-05-15T09:23:03.227Z,45.83
2023-05-15T09:25:40.375Z,45.62
2023-05-15T09:28:09.338Z,45.89
2023-05-15T09:30:41.653Z,45.18
2023-05-15T09:33:09.124Z,45.91
2023-05-15T09:35:37.903Z,45.51
2023-05-15T09:38:08.927Z,45.76
2023-05-15T09:40:35.429Z,45.32
2023-05-15T09:43:01.856Z,45.31
2023-05-15T09:45:30.202Z,45.42
2023-05-15T09:47:59.972Z,45.77
2023-05-15T09:50:33.723Z,45.70
2023-05-15T09:53:00.392Z,45.19
2023-05-15T09:55:27.596Z,45.72
2023-05-15T09:58:11.452Z,45.18
2023-05-15T10:00:48.308Z,45.80
2023-05-15T10:03:17.065Z,45.67
2023-05-15T10:05:44.243Z,44.77
2023-05-15T10:08:11.645Z,44.87
2023-05-15T10:10:38.675Z,44.84
2023-05-15T10:13:07.767Z,45.19
2023-05-15T10:15:53.316Z,45.31
2023-05-15T10:18:24.854Z,45.27
2023-05-15T10:20:51.673Z,45.64
2023-05-15T10:23:20.756Z,45.24
2023-05-15T10:26:14.184Z,45.29
2023-05-15T12:04:01.483Z,46.00
2023-05-15T12:15:17.235Z,46.37
2023-05-15T12:18:03.348Z,45.91
2023-05-15T12:20:29.994Z,46.29
2023-05-15T12:22:58.558Z,46.04
2023-05-15T12:25:25.470Z,46.32
2023-05-15T12:50:22.175Z,46.30
2023-05-15T13:35:57.256Z,46.73
2023-05-15T13:38:23.668Z,46.82
2023-05-15T14:25:03.024Z,46.92
2023-05-15T14:27:29.702Z,46.71
2023-05-15T14:29:59.001Z,46.93
2023-05-15T14:54:09.959Z,47.19
2023-05-15T14:56:36.290Z,47.30
2023-05-15T15:07:59.427Z,47.17
2023-05-15T15:10:26.693Z,47.56
2023-05-15T15:13:13.823Z,47.74
2023-05-15T15:15:40.739Z,47.85
2023-05-15T15:18:07.692Z,47.26
2023-05-15T15:20:34.809Z,46.75
2023-05-15T15:23:04.719Z,47.41
2023-05-15T15:25:32.875Z,47.05
2023-05-15T15:27:59.534Z,48.00
2023-05-15T15:30:26.096Z,47.76
2023-05-15T15:32:54.565Z,47.54
2023-05-15T15:35:21.335Z,47.63
2023-05-15T15:37:47.702Z,47.43
2023-05-15T15:40:14.147Z,47.55
2023-05-15T15:42:40.569Z,47.98
2023-05-15T15:45:07.334Z,47.77
2023-05-15T15:47:33.742Z,48.02
2023-05-15T15:50:00.260Z,47.51
2023-05-15T15:52:27.329Z,47.96
2023-05-15T15:54:54.013Z,48.02
2023-05-15T15:57:21.492Z,48.11
2023-05-15T15:59:47.981Z,48.14
2023-05-15T16:02:14.720Z,47.80
2023-05-15T16:04:41.078Z,48.18
2023-05-15T16:07:07.503Z,47.97
2023-05-15T16:09:34.254Z,48.23
2023-05-15T16:12:01.619Z,48.17
2023-05-15T16:14:28.036Z,47.91
2023-05-15T16:16:54.868Z,47.97
2023-05-15T16:19:21.775Z,48.05
2023-05-15T16:21:49.252Z,47.97
2023-05-15T16:24:15.715Z,48.16
2023-05-15T16:26:42.125Z,48.18
2023-05-15T16:29:08.531Z,48.10
2023-05-15T16:31:36.128Z,47.89
2023-05-15T16:34:03.818Z,47.96
2023-05-15T16:36:31.233Z,48.20
2023-05-15T16:38:57.652Z,47.93
2023-05-15T16:41:24.010Z,48.33
2023-05-15T16:43:50.383Z,48.12
2023-05-15T16:46:16.827Z,48.54
2023-05-15T16:48:43.319Z,48.09
2023-05-15T16:51:09.857Z,48.13
2023-05-15T16:53:36.387Z,48.42
2023-05-15T16:56:02.891Z,48.40
2023-05-15T16:58:29.365Z,48.34
2023-05-15T17:00:55.695Z,48.31
2023-05-15T17:03:22.146Z,48.12
2023-05-15T17:05:48.620Z,48.40
2023-05-15T17:08:15.008Z,48.10
2023-05-15T17:10:41.358Z,48.20
2023-05-15T17:13:07.874Z,48.48
2023-05-15T17:15:34.782Z,48.47
2023-05-15T17:18:01.195Z,48.47
2023-05-15T17:20:27.575Z,48.23
2023-05-15T17:22:53.920Z,48.09
2023-05-15T17:25:20.428Z,48.59
2023-05-15T17:27:46.867Z,48.18
2023-05-15T17:30:13.332Z,48.58
2023-05-15T17:32:39.880Z,48.62
2023-05-15T17:35:06.746Z,48.35
2023-05-15T17:37:33.639Z,48.47
2023-05-15T17:40:00.590Z,48.25
2023-05-15T17:42:28.255Z,48.73
2023-05-15T17:44:56.304Z,48.41
2023-05-15T17:47:22.982Z,48.07
2023-05-15T17:49:49.355Z,48.58
2023-05-15T17:52:15.751Z,48.63
2023-05-15T17:54:42.099Z,48.65
2023-05-15T17:57:08.464Z,48.65
2023-05-15T17:59:34.829Z,48.31
2023-05-15T18:02:01.334Z,48.50
2023-05-15T18:04:28.217Z,48.37
2023-05-15T18:06:54.637Z,48.38
2023-05-15T18:09:23.891Z,48.63
2023-05-15T18:11:50.967Z,48.70
2023-05-15T18:14:17.559Z,48.73
2023-05-15T18:16:44.240Z,48.39
2023-05-15T18:19:11.102Z,48.52
2023-05-15T18:21:37.980Z,48.35
2023-05-15T18:24:04.841Z,48.53
2023-05-15T18:26:31.199Z,48.68
2023-05-15T18:28:57.595Z,48.41
2023-05-15T18:31:24.118Z,48.68
2023-05-15T18:33:50.546Z,48.79
2023-05-15T18:36:16.881Z,48.19
2023-05-15T18:38:43.217Z,47.65
2023-05-15T18:41:09.561Z,48.38
2023-05-15T18:43:35.932Z,48.17
2023-05-15T18:46:02.314Z,48.57
2023-05-15T18:48:28.721Z,48.45
2023-05-15T18:50:55.729Z,48.52
2023-05-15T18:53:22.188Z,48.42
2023-05-15T18:55:48.624Z,48.74
2023-05-15T18:58:14.978Z,48.37
2023-05-15T19:00:41.408Z,48.44
2023-05-15T19:03:08.956Z,48.46
2023-05-15T19:05:35.699Z,48.40
2023-05-15T19:08:02.072Z,48.58
2023-05-15T19:10:29.392Z,48.55
2023-05-15T19:12:56.849Z,48.62
2023-05-15T19:15:23.282Z,48.81
2023-05-15T19:17:49.770Z,48.55
2023-05-15T19:20:16.275Z,48.57
2023-05-15T19:22:42.620Z,48.81
2023-05-15T19:25:11.376Z,48.57
2023-05-15T19:27:37.784Z,48.44
2023-05-15T19:30:06.828Z,48.69
2023-05-15T19:32:34.256Z,48.79
2023-05-15T19:35:00.788Z,48.70
2023-05-15T19:37:27.129Z,48.74
2023-05-15T19:39:53.514Z,48.58
2023-05-15T19:42:19.883Z,48.55
2023-05-15T19:44:46.246Z,48.72
2023-05-15T19:47:12.668Z,48.58
2023-05-15T19:49:39.080Z,48.61
2023-05-15T19:52:05.604Z,48.78
2023-05-15T19:54:31.975Z,48.83
2023-05-15T19:56:58.568Z,48.89
2023-05-15T19:59:24.954Z,49.10
2023-05-15T20:01:51.334Z,48.73
2023-05-15T20:04:17.845Z,48.88
2023-05-15T20:06:44.176Z,48.87
2023-05-15T20:09:10.542Z,48.54
2023-05-15T20:11:37.038Z,48.94
2023-05-15T20:14:03.593Z,48.84
2023-05-15T20:16:30.014Z,48.83
2023-05-15T20:18:57.140Z,48.65
2023-05-15T20:21:23.502Z,48.91
2023-05-15T20:23:51.009Z,49.06
2023-05-15T20:26:18.825Z,49.05
2023-05-15T20:28:45.627Z,48.86
2023-05-15T20:31:12.075Z,48.67
2023-05-15T20:33:38.501Z,49.13
2023-05-15T20:36:05.235Z,49.15
2023-05-15T20:38:33.702Z,48.88
2023-05-15T20:41:00.066Z,48.70
2023-05-15T20:43:26.665Z,48.95
2023-05-15T20:45:53.222Z,48.96
2023-05-15T20:48:19.623Z,48.79
2023-05-15T20:50:46.140Z,48.77
2023-05-15T20:53:13.164Z,48.88
2023-05-15T20:55:39.664Z,48.93
2023-05-15T20:58:06.055Z,49.25
2023-05-15T21:00:32.691Z,48.84
2023-05-15T21:02:59.204Z,48.87
2023-05-15T21:05:25.667Z,49.01
2023-05-15T21:07:52.157Z,49.27
2023-05-15T21:10:18.528Z,48.82
2023-05-15T21:12:44.892Z,48.93
2023-05-15T21:15:11.357Z,48.46
2023-05-15T21:17:38.009Z,48.72
2023-05-15T21:20:04.881Z,48.74
2023-05-15T21:22:31.285Z,49.06
2023-05-15T21:24:57.716Z,49.00
2023-05-15T21:27:24.221Z,49.65
2023-05-15T21:29:51.165Z,49.60
2023-05-15T21:32:17.554Z,49.36
2023-05-15T21:34:44.075Z,49.40
2023-05-15T21:37:10.724Z,49.41
2023-05-15T21:39:37.077Z,49.27
2023-05-15T21:42:03.643Z,48.99
2023-05-15T21:44:30.042Z,49.29
2023-05-15T21:46:56.920Z,49.66
2023-05-15T21:49:24.414Z,49.48
2023-05-15T21:51:50.750Z,49.36
2023-05-15T21:54:17.092Z,49.47
2023-05-15T21:56:43.475Z,49.32
2023-05-15T21:59:11.270Z,49.39
2023-05-15T22:01:37.742Z,49.40
2023-05-15T22:04:04.178Z,49.28
2023-05-15T22:06:31.021Z,49.36
2023-05-15T22:08:57.621Z,49.28
2023-05-15T22:11:24.077Z,49.24
2023-05-15T22:13:50.619Z,49.40
2023-05-15T22:16:17.122Z,49.14
2023-05-15T22:18:45.185Z,49.00
2023-05-15T22:21:11.904Z,49.26
2023-05-15T22:23:38.277Z,49.11
2023-05-15T22:26:04.683Z,49.40
2023-05-15T22:28:31.062Z,49.25
2023-05-15T22:30:57.485Z,49.36
2023-05-15T22:33:24.450Z,49.13
2023-05-15T22:35:52.591Z,49.27
2023-05-15T22:38:19.244Z,49.17
2023-05-15T22:40:52.408Z,49.28
2023-05-15T22:43:19.314Z,49.14
2023-05-15T22:45:45.834Z,49.41
2023-05-15T22:48:12.290Z,49.20
2023-05-15T22:50:38.687Z,49.11
2023-05-15T22:53:05.058Z,49.25
2023-05-15T22:55:31.450Z,49.23
2023-05-15T22:57:57.870Z,49.31
2023-05-15T23:00:24.352Z,49.66
2023-05-15T23:02:54.950Z,49.47
2023-05-15T23:05:21.849Z,49.40
2023-05-15T23:07:48.618Z,49.15
2023-05-15T23:10:14.974Z,49.12
2023-05-15T23:12:41.398Z,49.15
2023-05-15T23:15:10.232Z,49.22
2023-05-15T23:17:36.805Z,49.29
2023-05-15T23:20:05.604Z,49.20
2023-05-15T23:22:32.504Z,49.23
2023-05-15T23:24:58.969Z,49.21
2023-05-15T23:27:25.364Z,49.27
2023-05-15T23:29:51.720Z,49.19
2023-05-15T23:32:18.122Z,49.11
2023-05-15T23:34:44.534Z,49.23
2023-05-15T23:37:10.900Z,49.09
2023-05-15T23:39:37.252Z,49.35
2023-05-15T23:42:03.761Z,49.15
2023-05-15T23:44:30.160Z,49.14
2023-05-15T23:46:56.559Z,49.14
2023-05-15T23:49:22.974Z,49.12
2023-05-15T23:51:49.329Z,49.16
2023-05-15T23:54:15.737Z,49.29
2023-05-15T23:56:42.142Z,48.97
2023-05-15T23:59:08.504Z,49.04
